createdAt,value
2022-09-01T00:01:53.672Z,69.15
2022-09-01T00:04:27.304Z,69.50
2022-09-01T00:06:57.164Z,69.40
2022-09-01T00:09:25.690Z,69.29
2022-09-01T00:11:56.046Z,69.51
2022-09-01T00:14:31.227Z,69.28
2022-09-01T00:17:00.668Z,69.50
2022-09-01T00:19:30.488Z,69.56
2022-09-01T00:22:01.511Z,69.74
2022-09-01T00:24:30.520Z,69.67
2022-09-01T00:26:58.907Z,69.83
2022-09-01T00:29:27.948Z,69.71
2022-09-01T00:31:56.304Z,69.72
2022-09-01T00:34:24.891Z,69.31
2022-09-01T00:36:53.201Z,69.61
2022-09-01T00:39:23.236Z,69.46
2022-09-01T00:41:51.807Z,69.41
2022-09-01T00:44:24.703Z,69.26
2022-09-01T00:46:55.908Z,69.00
2022-09-01T00:49:31.428Z,69.10
2022-09-01T00:52:05.693Z,69.32
2022-09-01T00:54:40.106Z,69.25
2022-09-01T00:57:12.823Z,69.78
2022-09-01T00:59:48.109Z,69.64
2022-09-01T01:02:16.920Z,69.82
2022-09-01T01:04:46.384Z,69.71
2022-09-01T01:07:17.388Z,69.79
2022-09-01T01:09:48.555Z,69.69
2022-09-01T01:12:19.005Z,69.83
2022-09-01T01:14:50.592Z,69.96
2022-09-01T01:17:20.732Z,70.02
2022-09-01T01:20:09.224Z,69.96
2022-09-01T01:23:08.528Z,70.00
2022-09-01T01:25:42.318Z,69.97
2022-09-01T01:28:15.701Z,70.05
2022-09-01T01:30:51.218Z,70.15
2022-09-01T01:33:20.384Z,70.29
2022-09-01T01:35:50.731Z,70.13
2022-09-01T01:38:20.898Z,70.22
2022-09-01T01:40:53.994Z,69.83
2022-09-01T01:43:25.213Z,69.92
2022-09-01T01:45:56.840Z,70.04
2022-09-01T01:48:34.757Z,70.38
2022-09-01T01:51:04.668Z,70.07
2022-09-01T01:53:34.387Z,70.21
2022-09-01T01:56:06.300Z,70.34
2022-09-01T01:58:37.208Z,70.27
2022-09-01T02:01:13.240Z,70.18
2022-09-01T02:03:42.119Z,70.37
2022-09-01T02:06:12.384Z,70.20
2022-09-01T02:08:43.907Z,70.32
2022-09-01T02:11:17.401Z,70.36
2022-09-01T02:13:47.060Z,70.49
2022-09-01T02:16:16.998Z,70.19
2022-09-01T02:18:48.711Z,70.34
2022-09-01T02:21:20.350Z,70.72
2022-09-01T02:23:50.368Z,70.61
2022-09-01T02:26:22.950Z,70.48
2022-09-01T02:28:55.150Z,70.17
2022-09-01T02:31:29.056Z,70.03
2022-09-01T02:34:01.278Z,69.80
2022-09-01T02:36:32.987Z,69.93
2022-09-01T02:39:02.535Z,69.85
2022-09-01T02:41:34.605Z,69.93
2022-09-01T02:44:05.919Z,70.47
2022-09-01T02:46:37.990Z,70.25
2022-09-01T02:49:08.831Z,70.48
2022-09-01T02:51:37.482Z,70.55
2022-09-01T02:54:06.472Z,70.33
2022-09-01T02:56:36.815Z,70.60
2022-09-01T02:59:13.185Z,70.64
2022-09-01T03:01:41.933Z,70.41
2022-09-01T03:04:12.767Z,70.61
2022-09-01T03:06:41.961Z,70.45
2022-09-01T03:09:14.792Z,70.58
2022-09-01T03:11:46.868Z,70.77
2022-09-01T03:14:15.877Z,70.54
2022-09-01T03:16:44.644Z,70.54
2022-09-01T03:19:13.453Z,70.91
2022-09-01T03:21:46.155Z,70.95
2022-09-01T03:24:19.728Z,70.77
2022-09-01T03:26:52.542Z,70.49
2022-09-01T03:29:21.600Z,70.64
2022-09-01T03:31:50.561Z,70.68
2022-09-01T03:34:23.690Z,70.71
2022-09-01T03:36:54.553Z,70.65
2022-09-01T03:39:28.043Z,71.19
2022-09-01T03:41:58.998Z,71.17
2022-09-01T03:44:28.348Z,71.02
2022-09-01T03:46:58.520Z,71.36
2022-09-01T03:49:28.731Z,70.99
2022-09-01T03:51:58.825Z,70.93
2022-09-01T03:54:30.779Z,70.90
2022-09-01T03:57:00.780Z,70.77
2022-09-01T03:59:30.639Z,70.95
2022-09-01T04:01:59.985Z,71.06
2022-09-01T04:04:29.491Z,71.21
2022-09-01T04:06:57.788Z,71.13
2022-09-01T04:09:26.171Z,71.11
2022-09-01T04:11:55.855Z,71.07
2022-09-01T04:14:29.284Z,71.00
2022-09-01T04:17:16.575Z,70.87
2022-09-01T04:19:45.023Z,70.78
2022-09-01T04:22:14.543Z,70.84
2022-09-01T04:24:46.807Z,71.12
2022-09-01T04:27:18.813Z,71.05
2022-09-01T04:29:48.744Z,70.84
2022-09-01T04:32:21.450Z,70.87
2022-09-01T04:34:53.496Z,71.31
2022-09-01T04:37:23.732Z,71.24
2022-09-01T04:39:57.623Z,71.32
2022-09-01T04:42:29.889Z,71.52
2022-09-01T04:45:09.940Z,71.69
2022-09-01T04:47:43.022Z,71.59
2022-09-01T04:50:17.882Z,71.41
2022-09-01T04:53:07.253Z,71.49
2022-09-01T04:55:46.268Z,71.60
2022-09-01T04:58:19.959Z,71.70
2022-09-01T05:00:53.152Z,71.75
2022-09-01T05:03:24.386Z,71.47
2022-09-01T05:06:00.364Z,71.54
2022-09-01T05:08:29.262Z,71.60
2022-09-01T05:11:08.080Z,71.38
2022-09-01T05:13:42.507Z,71.75
2022-09-01T05:16:15.233Z,71.86
2022-09-01T05:18:49.036Z,71.64
2022-09-01T05:21:22.611Z,71.83
2022-09-01T05:23:51.939Z,71.82
2022-09-01T05:26:24.042Z,71.99
2022-09-01T05:28:56.320Z,72.07
2022-09-01T05:31:28.655Z,72.17
2022-09-01T05:33:58.337Z,71.99
2022-09-01T05:36:26.893Z,71.75
2022-09-01T05:38:57.175Z,71.79
2022-09-01T05:41:25.904Z,72.02
2022-09-01T05:43:59.962Z,72.06
2022-09-01T05:46:31.152Z,71.99
2022-09-01T05:49:00.215Z,72.21
2022-09-01T05:51:50.371Z,72.41
2022-09-01T05:54:27.504Z,72.47
2022-09-01T05:57:12.730Z,72.35
2022-09-01T05:59:53.922Z,72.34
2022-09-01T06:02:27.370Z,72.16
2022-09-01T06:04:59.958Z,72.09
2022-09-01T06:07:34.004Z,71.66
2022-09-01T06:10:04.471Z,71.57
2022-09-01T06:12:34.146Z,71.43
2022-09-01T06:15:03.364Z,71.20
2022-09-01T06:17:36.699Z,71.16
2022-09-01T06:20:10.783Z,71.03
2022-09-01T06:22:42.200Z,70.74
2022-09-01T06:25:11.810Z,70.29
2022-09-01T06:27:44.972Z,70.47
2022-09-01T06:30:20.140Z,70.25
2022-09-01T06:33:02.367Z,70.08
2022-09-01T06:35:33.085Z,69.48
2022-09-01T06:38:02.120Z,68.43
2022-09-01T06:40:51.130Z,66.59
2022-09-01T06:43:23.939Z,65.50
2022-09-01T06:45:54.610Z,63.41
2022-09-01T06:48:26.484Z,61.54
2022-09-01T06:51:20.978Z,58.98
2022-09-01T06:53:59.503Z,56.74
2022-09-01T06:56:42.834Z,56.09
2022-09-01T06:59:15.703Z,54.42
2022-09-01T07:05:04.424Z,52.75
2022-09-01T07:13:36.623Z,49.77
2022-09-01T07:16:35.411Z,48.13
2022-09-01T07:19:06.734Z,47.95
2022-09-01T07:21:40.778Z,47.57
2022-09-01T07:24:13.127Z,46.66
2022-09-01T07:26:54.413Z,46.18
2022-09-01T07:29:25.870Z,46.18
2022-09-01T07:34:47.755Z,45.21
2022-09-01T07:43:19.019Z,47.08
2022-09-01T07:49:30.699Z,47.14
2022-09-01T07:51:53.230Z,46.97
2022-09-01T07:54:25.388Z,46.41
2022-09-01T07:56:54.855Z,46.77
2022-09-01T07:59:24.090Z,46.90
2022-09-01T08:02:04.641Z,46.70
2022-09-01T08:04:34.229Z,44.86
2022-09-01T08:07:03.232Z,43.87
2022-09-01T08:09:38.028Z,43.60
2022-09-01T08:12:09.803Z,43.79
2022-09-01T08:14:47.116Z,42.43
2022-09-01T08:17:33.091Z,41.35
2022-09-01T08:20:09.529Z,40.43
2022-09-01T08:23:01.689Z,40.54
2022-09-01T08:25:48.865Z,41.06
2022-09-01T08:28:29.058Z,39.71
2022-09-01T08:31:00.208Z,39.20
2022-09-01T08:33:29.580Z,38.68
2022-09-01T08:35:57.886Z,38.27
2022-09-01T08:38:28.137Z,39.18
2022-09-01T08:41:00.945Z,39.56
2022-09-01T08:43:49.417Z,37.41
2022-09-01T08:46:24.650Z,37.96
2022-09-01T08:49:24.228Z,38.06
2022-09-01T08:52:25.532Z,38.10
2022-09-01T08:55:01.672Z,37.91
2022-09-01T08:57:36.202Z,37.64
2022-09-01T09:00:24.969Z,37.88
2022-09-01T09:03:08.602Z,38.32
2022-09-01T09:05:49.032Z,38.08
2022-09-01T09:08:49.840Z,37.14
2022-09-01T09:11:36.019Z,37.27
2022-09-01T09:14:12.526Z,35.17
2022-09-01T09:16:43.922Z,35.24
2022-09-01T09:19:18.220Z,35.40
2022-09-01T09:21:48.202Z,34.49
2022-09-01T09:24:25.460Z,33.62
2022-09-01T09:26:58.935Z,33.43
2022-09-01T09:29:29.952Z,34.25
2022-09-01T09:32:06.162Z,33.76
2022-09-01T09:34:37.735Z,33.52
2022-09-01T09:37:22.092Z,33.04
2022-09-01T09:40:15.243Z,33.59
2022-09-01T09:43:03.430Z,33.29
2022-09-01T09:45:35.173Z,32.53
2022-09-01T09:48:10.891Z,31.41
2022-09-01T09:50:43.315Z,33.07
2022-09-01T09:53:28.492Z,32.79
2022-09-01T09:56:01.282Z,30.85
2022-09-01T09:58:37.629Z,31.99
2022-09-01T10:01:17.801Z,33.21
2022-09-01T10:03:50.569Z,32.10
2022-09-01T10:06:34.598Z,32.33
2022-09-01T10:09:05.684Z,32.07
2022-09-01T10:11:40.927Z,32.01
2022-09-01T10:14:35.273Z,31.73
2022-09-01T10:17:09.784Z,31.90
2022-09-01T10:19:42.156Z,31.93
2022-09-01T10:22:15.197Z,30.93
2022-09-01T10:24:45.990Z,32.33
2022-09-01T10:27:21.838Z,31.73
2022-09-01T10:32:54.983Z,30.86
2022-09-01T10:35:27.618Z,29.82
2022-09-01T10:37:59.130Z,29.32
2022-09-01T10:40:50.036Z,29.95
2022-09-01T10:43:38.489Z,29.94
2022-09-01T10:46:41.863Z,29.95
2022-09-01T10:49:25.228Z,30.52
2022-09-01T10:51:57.047Z,30.24
2022-09-01T10:54:56.027Z,30.03
2022-09-01T10:57:46.403Z,28.31
2022-09-01T11:04:01.335Z,27.81
2022-09-01T11:07:17.169Z,29.02
2022-09-01T11:10:32.075Z,29.28
2022-09-01T11:13:33.096Z,29.05
2022-09-01T11:19:31.153Z,28.55
2022-09-01T11:22:15.482Z,27.86
2022-09-01T11:25:12.065Z,28.78
2022-09-01T11:28:02.185Z,27.97
2022-09-01T11:30:52.049Z,28.28
2022-09-01T11:33:33.888Z,27.64
2022-09-01T11:36:05.025Z,27.04
2022-09-01T11:38:50.641Z,27.32
2022-09-01T11:41:24.640Z,27.42
2022-09-01T11:43:58.026Z,27.10
2022-09-01T11:46:32.717Z,26.52
2022-09-01T11:49:07.565Z,26.78
2022-09-01T11:51:47.515Z,26.98
2022-09-01T11:54:17.642Z,26.60
2022-09-01T11:56:45.851Z,26.28
2022-09-01T11:59:14.080Z,27.02
2022-09-01T12:01:42.533Z,26.41
2022-09-01T12:04:33.661Z,28.18
2022-09-01T12:07:04.497Z,26.85
2022-09-01T12:09:43.005Z,25.40
2022-09-01T12:12:30.708Z,26.06
2022-09-01T12:15:05.625Z,25.47
2022-09-01T12:17:35.116Z,26.10
2022-09-01T12:20:31.880Z,25.97
2022-09-01T12:23:02.577Z,26.41
2022-09-01T12:25:35.399Z,26.28
2022-09-01T12:28:06.173Z,26.51
2022-09-01T12:30:39.584Z,26.00
2022-09-01T12:33:26.239Z,26.04
2022-09-01T12:36:17.015Z,26.97
2022-09-01T12:38:45.301Z,27.04
2022-09-01T12:41:35.134Z,26.20
2022-09-01T12:44:30.525Z,27.05
2022-09-01T12:47:00.637Z,26.43
2022-09-01T12:49:45.120Z,26.09
2022-09-01T12:52:25.463Z,26.19
2022-09-01T12:55:07.164Z,27.32
2022-09-01T12:57:39.568Z,26.87
2022-09-01T13:00:18.285Z,26.29
2022-09-01T13:02:48.512Z,27.36
2022-09-01T13:05:30.228Z,27.87
2022-09-01T13:08:02.932Z,26.95
2022-09-01T13:10:38.151Z,26.87
2022-09-01T13:13:10.545Z,27.64
2022-09-01T13:15:40.571Z,26.32
2022-09-01T13:18:08.751Z,26.99
2022-09-01T13:20:37.603Z,27.10
2022-09-01T13:23:05.837Z,27.22
2022-09-01T13:25:34.064Z,27.97
2022-09-01T13:28:02.694Z,26.00
2022-09-01T13:30:32.423Z,26.65
2022-09-01T13:35:49.524Z,26.15
2022-09-01T13:38:18.173Z,25.70
2022-09-01T13:40:47.634Z,26.25
2022-09-01T13:43:16.952Z,26.40
2022-09-01T13:45:47.390Z,27.06
2022-09-01T13:48:17.040Z,26.95
2022-09-01T13:53:37.948Z,26.08
2022-09-01T13:56:06.570Z,26.12
2022-09-01T13:58:34.815Z,26.77
2022-09-01T14:01:05.228Z,26.64
2022-09-01T14:03:33.655Z,28.16
2022-09-01T14:06:02.273Z,28.77
2022-09-01T14:08:31.495Z,28.80
2022-09-01T14:11:00.196Z,28.40
2022-09-01T14:13:30.164Z,29.22
2022-09-01T14:15:59.072Z,29.76
2022-09-01T14:18:36.906Z,29.98
2022-09-01T14:21:05.494Z,29.68
2022-09-01T14:23:33.760Z,29.24
2022-09-01T14:26:02.048Z,29.68
2022-09-01T14:28:30.294Z,29.58
2022-09-01T14:33:27.434Z,31.20
2022-09-01T14:35:57.204Z,31.17
2022-09-01T14:38:25.383Z,31.98
2022-09-01T14:40:53.812Z,32.00
2022-09-01T14:43:22.601Z,32.23
2022-09-01T14:45:50.874Z,32.70
2022-09-01T14:48:20.831Z,33.28
2022-09-01T14:50:51.114Z,33.24
2022-09-01T14:53:24.080Z,33.80
2022-09-01T14:55:55.632Z,34.13
2022-09-01T14:58:26.620Z,34.08
2022-09-01T15:01:03.557Z,34.98
2022-09-01T15:03:35.791Z,34.86
2022-09-01T15:06:04.149Z,34.99
2022-09-01T15:08:33.824Z,34.25
2022-09-01T15:11:02.615Z,34.32
2022-09-01T15:13:30.893Z,34.17
2022-09-01T15:15:59.740Z,34.26
2022-09-01T15:18:27.960Z,34.51
2022-09-01T15:20:56.346Z,34.53
2022-09-01T15:23:26.284Z,34.64
2022-09-01T15:25:57.948Z,34.42
2022-09-01T15:28:26.597Z,33.75
2022-09-01T15:30:57.074Z,34.20
2022-09-01T15:33:25.368Z,33.47
2022-09-01T15:35:53.815Z,33.73
2022-09-01T15:38:28.371Z,34.21
2022-09-01T15:41:00.486Z,33.97
2022-09-01T15:43:29.470Z,34.82
2022-09-01T15:45:59.346Z,34.53
2022-09-01T15:48:28.415Z,34.06
2022-09-01T15:51:26.814Z,34.79
2022-09-01T15:53:57.847Z,35.02
2022-09-01T15:56:28.240Z,35.20
2022-09-01T15:59:01.620Z,35.46
2022-09-01T16:01:33.374Z,35.28
2022-09-01T16:04:02.628Z,35.64
2022-09-01T16:06:31.744Z,36.04
2022-09-01T16:09:00.282Z,36.23
2022-09-01T16:11:30.000Z,35.57
2022-09-01T16:13:58.697Z,36.19
2022-09-01T16:16:42.770Z,35.81
2022-09-01T16:19:22.838Z,36.92
2022-09-01T16:21:59.161Z,37.15
2022-09-01T16:24:28.349Z,35.88
2022-09-01T16:26:58.566Z,36.58
2022-09-01T16:29:44.990Z,37.45
2022-09-01T16:32:14.340Z,38.18
2022-09-01T16:34:47.149Z,36.64
2022-09-01T16:37:27.209Z,37.15
2022-09-01T16:40:05.783Z,36.87
2022-09-01T16:42:46.978Z,36.37
2022-09-01T16:45:21.767Z,35.87
2022-09-01T16:48:02.698Z,36.12
2022-09-01T16:50:41.587Z,36.61
2022-09-01T16:53:19.058Z,37.34
2022-09-01T16:55:58.943Z,38.34
2022-09-01T16:58:41.508Z,38.78
2022-09-01T17:01:24.683Z,37.75
2022-09-01T17:04:10.003Z,38.30
2022-09-01T17:06:49.196Z,38.72
2022-09-01T17:09:23.229Z,38.89
2022-09-01T17:11:54.917Z,39.04
2022-09-01T17:14:37.159Z,38.47
2022-09-01T17:17:11.000Z,38.44
2022-09-01T17:19:41.897Z,38.88
2022-09-01T17:22:13.875Z,39.17
2022-09-01T17:24:44.396Z,38.81
2022-09-01T17:27:19.847Z,38.79
2022-09-01T17:29:53.384Z,38.58
2022-09-01T17:32:48.349Z,38.70
2022-09-01T17:35:26.121Z,38.54
2022-09-01T17:38:06.494Z,39.02
2022-09-01T17:40:50.545Z,39.03
2022-09-01T17:43:26.873Z,39.36
2022-09-01T17:46:04.898Z,39.71
2022-09-01T17:48:51.029Z,40.77
2022-09-01T17:51:28.502Z,41.47
2022-09-01T17:54:09.653Z,41.02
2022-09-01T17:56:45.735Z,40.59
2022-09-01T17:59:22.578Z,41.25
2022-09-01T18:02:04.088Z,41.55
2022-09-01T18:04:57.200Z,41.87
2022-09-01T18:07:41.505Z,42.28
2022-09-01T18:10:15.512Z,42.99
2022-09-01T18:12:46.684Z,42.76
2022-09-01T18:15:18.099Z,43.16
2022-09-01T18:17:51.816Z,43.43
2022-09-01T18:20:25.893Z,44.15
2022-09-01T18:23:02.466Z,44.52
2022-09-01T18:25:39.160Z,45.02
2022-09-01T18:28:09.271Z,45.69
2022-09-01T18:30:54.160Z,46.09
2022-09-01T18:33:30.449Z,46.24
2022-09-01T18:36:23.712Z,46.85
2022-09-01T18:39:00.302Z,46.74
2022-09-01T18:41:54.113Z,47.01
2022-09-01T18:44:37.388Z,47.55
2022-09-01T18:47:11.225Z,48.57
2022-09-01T18:49:53.767Z,49.00
2022-09-01T18:52:50.939Z,50.23
2022-09-01T18:55:25.915Z,50.63
2022-09-01T18:57:58.837Z,51.69
2022-09-01T19:00:36.973Z,51.19
2022-09-01T19:03:17.034Z,52.30
2022-09-01T19:06:13.216Z,52.37
2022-09-01T19:08:55.333Z,52.91
2022-09-01T19:11:34.333Z,53.58
2022-09-01T19:14:12.161Z,53.95
2022-09-01T19:16:56.072Z,54.33
2022-09-01T19:19:40.394Z,54.95
2022-09-01T19:22:12.048Z,55.37
2022-09-01T19:24:48.258Z,55.68
2022-09-01T19:27:22.376Z,56.00
2022-09-01T19:29:56.257Z,56.25
2022-09-01T19:32:32.037Z,56.43
2022-09-01T19:35:07.966Z,56.17
2022-09-01T19:37:37.857Z,56.47
2022-09-01T19:40:08.599Z,56.56
2022-09-01T19:42:44.579Z,56.72
2022-09-01T19:45:18.897Z,56.99
2022-09-01T19:47:52.701Z,56.82
2022-09-01T19:50:24.835Z,56.58
2022-09-01T19:53:00.738Z,56.70
2022-09-01T19:55:34.185Z,56.94
2022-09-01T19:58:08.587Z,57.16
2022-09-01T20:00:51.161Z,57.67
2022-09-01T20:03:23.548Z,57.92
2022-09-01T20:05:58.336Z,58.13
2022-09-01T20:08:36.041Z,58.55
2022-09-01T20:11:10.264Z,58.74
2022-09-01T20:14:03.419Z,58.85
2022-09-01T20:16:35.487Z,58.91
2022-09-01T20:19:10.560Z,58.62
2022-09-01T20:21:43.504Z,58.58
2022-09-01T20:24:21.068Z,57.61
2022-09-01T20:27:00.234Z,57.54
2022-09-01T20:29:35.109Z,58.03
2022-09-01T20:32:05.410Z,58.14
2022-09-01T20:34:40.032Z,58.62
2022-09-01T20:37:19.455Z,58.84
2022-09-01T20:40:01.086Z,59.01
2022-09-01T20:42:38.465Z,59.24
2022-09-01T20:45:13.429Z,59.51
2022-09-01T20:47:42.985Z,59.96
2022-09-01T20:50:14.636Z,60.59
2022-09-01T20:52:56.825Z,60.58
2022-09-01T20:55:33.897Z,60.89
2022-09-01T20:58:11.245Z,61.08
2022-09-01T21:00:49.726Z,61.05
2022-09-01T21:03:33.968Z,61.58
2022-09-01T21:06:09.543Z,62.07
2022-09-01T21:08:45.140Z,62.14
2022-09-01T21:11:32.436Z,61.79
2022-09-01T21:14:13.868Z,62.16
2022-09-01T21:16:53.192Z,62.26
2022-09-01T21:19:33.036Z,62.09
2022-09-01T21:22:06.477Z,62.40
2022-09-01T21:24:35.401Z,62.32
2022-09-01T21:27:09.527Z,62.44
2022-09-01T21:29:56.082Z,62.40
2022-09-01T21:32:24.453Z,62.40
2022-09-01T21:34:54.163Z,62.65
2022-09-01T21:37:23.892Z,62.54
2022-09-01T21:39:54.180Z,62.98
2022-09-01T21:42:31.604Z,62.91
2022-09-01T21:45:01.763Z,63.29
2022-09-01T21:47:30.626Z,63.24
2022-09-01T21:49:59.088Z,63.28
2022-09-01T21:52:27.823Z,63.84
2022-09-01T21:54:56.086Z,63.72
2022-09-01T21:57:25.748Z,64.18
2022-09-01T21:59:54.087Z,64.04
2022-09-01T22:02:22.489Z,64.22
2022-09-01T22:04:57.704Z,64.65
2022-09-01T22:07:25.985Z,64.45
2022-09-01T22:09:57.943Z,63.84
2022-09-01T22:12:28.455Z,63.96
2022-09-01T22:14:57.057Z,64.24
2022-09-01T22:17:27.228Z,63.90
2022-09-01T22:19:55.560Z,64.28
2022-09-01T22:22:23.845Z,64.17
2022-09-01T22:24:52.240Z,62.69
2022-09-01T22:27:21.293Z,63.42
2022-09-01T22:29:52.344Z,64.05
2022-09-01T22:32:23.261Z,64.49
2022-09-01T22:34:52.892Z,64.51
2022-09-01T22:37:21.369Z,64.88
2022-09-01T22:39:49.900Z,65.04
2022-09-01T22:42:18.252Z,64.76
2022-09-01T22:44:46.742Z,65.12
2022-09-01T22:47:17.479Z,64.78
2022-09-01T22:49:46.045Z,64.57
2022-09-01T22:52:14.760Z,64.38
2022-09-01T22:54:43.389Z,64.54
2022-09-01T22:57:11.925Z,64.69
2022-09-01T22:59:42.492Z,64.67
2022-09-01T23:02:11.634Z,64.80
2022-09-01T23:04:43.565Z,64.98
2022-09-01T23:07:11.953Z,65.08
2022-09-01T23:09:40.913Z,65.12
2022-09-01T23:12:09.416Z,65.08
2022-09-01T23:14:37.771Z,65.14
2022-09-01T23:17:06.186Z,65.45
2022-09-01T23:19:34.409Z,65.33
2022-09-01T23:22:04.334Z,65.27
2022-09-01T23:24:32.805Z,65.18
2022-09-01T23:27:01.127Z,65.22
2022-09-01T23:29:29.479Z,65.62
2022-09-01T23:31:58.936Z,65.71
2022-09-01T23:34:27.237Z,66.05
2022-09-01T23:36:55.581Z,66.27
2022-09-01T23:39:25.413Z,66.46
2022-09-01T23:41:54.229Z,66.82
2022-09-01T23:44:23.691Z,66.49
2022-09-01T23:46:52.000Z,66.39
2022-09-01T23:49:20.800Z,66.18
2022-09-01T23:51:49.473Z,66.17
2022-09-01T23:54:18.781Z,66.23
2022-09-01T23:56:49.161Z,66.15
2022-09-01T23:59:17.773Z,66.39
